createdAt,value
2023-12-31T00:00:37.452Z,21.50
2023-12-31T00:03:05.217Z,15.50
2023-12-31T00:05:34.479Z,8.20
2023-12-31T00:08:02.024Z,8.70
2023-12-31T00:10:29.355Z,6.20
2023-12-31T00:12:56.734Z,8.20
2023-12-31T00:15:24.076Z,6.50
2023-12-31T00:17:51.411Z,5.80
2023-12-31T00:20:18.757Z,5.60
2023-12-31T00:22:46.198Z,4.50
2023-12-31T00:25:13.916Z,5.10
2023-12-31T00:27:42.705Z,5.20
2023-12-31T00:30:13.252Z,4.90
2023-12-31T00:32:40.723Z,4.80
2023-12-31T00:35:08.450Z,6.30
2023-12-31T00:37:35.814Z,3.90
2023-12-31T00:40:03.363Z,4.10
2023-12-31T00:42:30.725Z,5.40
2023-12-31T00:44:58.723Z,3.60
2023-12-31T00:47:26.110Z,4.60
2023-12-31T00:49:53.523Z,4.80
2023-12-31T00:52:20.986Z,5.30
2023-12-31T00:54:51.862Z,5.00
2023-12-31T00:57:19.714Z,3.20
2023-12-31T00:59:47.045Z,3.40
2023-12-31T01:02:14.446Z,3.10
2023-12-31T01:04:42.420Z,4.00
2023-12-31T01:07:10.133Z,2.60
2023-12-31T01:09:37.483Z,3.70
2023-12-31T01:12:05.075Z,3.30
2023-12-31T01:14:32.846Z,2.50
2023-12-31T01:17:00.654Z,3.50
2023-12-31T01:19:28.007Z,4.00
2023-12-31T01:21:56.602Z,3.00
2023-12-31T01:24:23.935Z,3.10
2023-12-31T01:26:51.240Z,3.40
2023-12-31T01:29:18.589Z,3.60
2023-12-31T01:31:45.994Z,3.30
2023-12-31T01:34:13.911Z,3.30
2023-12-31T01:36:41.356Z,2.40
2023-12-31T01:39:08.926Z,2.60
2023-12-31T01:41:36.390Z,2.20
2023-12-31T01:44:04.777Z,3.40
2023-12-31T01:46:32.864Z,2.80
2023-12-31T01:49:00.876Z,3.20
2023-12-31T01:51:28.991Z,3.00
2023-12-31T01:53:59.787Z,3.30
2023-12-31T01:56:27.076Z,3.70
2023-12-31T01:58:54.496Z,2.20
2023-12-31T02:01:24.062Z,2.60
2023-12-31T02:03:51.763Z,2.50
2023-12-31T02:06:19.879Z,2.10
2023-12-31T02:08:47.314Z,1.80
2023-12-31T02:11:14.631Z,3.60
2023-12-31T02:13:43.197Z,3.30
2023-12-31T02:16:17.482Z,4.00
2023-12-31T02:18:47.095Z,2.00
2023-12-31T02:21:15.343Z,4.00
2023-12-31T02:23:43.228Z,2.70
2023-12-31T02:26:12.248Z,2.40
2023-12-31T02:28:42.876Z,2.50
2023-12-31T02:31:10.353Z,2.10
2023-12-31T02:33:37.880Z,3.50
2023-12-31T02:36:05.645Z,2.80
2023-12-31T02:38:33.063Z,2.20
2023-12-31T02:41:00.412Z,2.50
2023-12-31T02:43:27.815Z,2.60
2023-12-31T02:45:56.924Z,2.50
2023-12-31T02:48:25.585Z,2.90
2023-12-31T02:50:53.003Z,3.40
2023-12-31T02:53:20.482Z,2.90
2023-12-31T02:55:47.989Z,2.60
2023-12-31T02:58:15.405Z,4.00
2023-12-31T03:00:42.920Z,3.80
2023-12-31T03:03:10.476Z,4.20
2023-12-31T03:05:38.022Z,2.60
2023-12-31T03:08:06.415Z,3.40
2023-12-31T03:10:33.742Z,10.40
2023-12-31T03:13:01.172Z,3.40
2023-12-31T03:15:29.022Z,13.10
2023-12-31T03:17:56.486Z,12.10
2023-12-31T03:20:23.894Z,25.00
2023-12-31T03:22:51.746Z,8.70
2023-12-31T03:25:19.213Z,11.20
2023-12-31T03:27:47.046Z,9.70
2023-12-31T03:30:14.780Z,5.20
2023-12-31T03:32:42.266Z,4.50
2023-12-31T03:35:10.315Z,4.60
2023-12-31T03:37:37.694Z,4.00
2023-12-31T03:40:05.880Z,4.30
2023-12-31T03:42:34.412Z,4.40
2023-12-31T03:45:01.891Z,4.70
2023-12-31T03:47:29.845Z,5.50
2023-12-31T03:49:57.278Z,4.10
2023-12-31T03:52:24.707Z,4.50
2023-12-31T03:54:52.477Z,4.60
2023-12-31T03:57:19.772Z,4.00
2023-12-31T03:59:47.379Z,4.00
2023-12-31T04:02:14.691Z,3.80
2023-12-31T04:04:42.063Z,5.00
2023-12-31T04:07:11.249Z,8.60
2023-12-31T04:09:38.666Z,6.20
2023-12-31T04:12:06.753Z,6.70
2023-12-31T04:14:34.650Z,6.40
2023-12-31T04:17:01.985Z,4.80
2023-12-31T04:19:31.394Z,4.40
2023-12-31T04:21:59.043Z,8.40
2023-12-31T04:24:27.804Z,5.10
2023-12-31T04:26:55.160Z,7.50
2023-12-31T04:29:22.476Z,16.70
2023-12-31T04:31:52.623Z,10.30
2023-12-31T04:34:22.867Z,9.60
2023-12-31T04:36:50.335Z,7.90
2023-12-31T04:39:17.613Z,7.50
2023-12-31T04:41:44.920Z,7.20
2023-12-31T04:44:12.349Z,7.90
2023-12-31T04:46:39.802Z,8.30
2023-12-31T04:49:07.287Z,9.80
2023-12-31T04:51:35.296Z,7.40
2023-12-31T04:54:02.604Z,10.20
2023-12-31T04:56:29.984Z,8.40
2023-12-31T04:58:58.319Z,9.10
2023-12-31T05:01:34.930Z,12.60
2023-12-31T05:04:03.068Z,12.50
2023-12-31T05:06:30.546Z,14.30
2023-12-31T05:08:57.948Z,226.80
2023-12-31T05:11:27.353Z,43.70
2023-12-31T05:13:54.783Z,18.20
2023-12-31T05:16:22.283Z,19.20
2023-12-31T05:18:52.980Z,13.40
2023-12-31T05:21:20.817Z,19.60
2023-12-31T05:23:48.281Z,15.70
2023-12-31T05:26:15.931Z,13.40
2023-12-31T05:28:43.337Z,12.00
2023-12-31T05:31:11.926Z,12.20
2023-12-31T05:33:39.441Z,10.90
2023-12-31T05:36:06.917Z,11.90
2023-12-31T05:38:34.277Z,13.20
2023-12-31T05:41:01.651Z,12.20
2023-12-31T05:43:29.191Z,11.10
2023-12-31T05:45:56.643Z,14.80
2023-12-31T05:48:24.171Z,10.70
2023-12-31T05:50:51.973Z,13.40
2023-12-31T05:53:19.289Z,12.20
2023-12-31T05:55:47.867Z,11.60
2023-12-31T05:58:15.509Z,13.60
2023-12-31T06:00:42.979Z,13.80
2023-12-31T06:03:10.446Z,13.70
2023-12-31T06:05:38.364Z,13.00
2023-12-31T06:08:06.630Z,46.60
2023-12-31T06:10:34.480Z,67.40
2023-12-31T06:13:03.188Z,28.30
2023-12-31T06:15:31.354Z,25.50
2023-12-31T06:17:59.023Z,24.70
2023-12-31T06:20:26.432Z,23.90
2023-12-31T06:22:53.834Z,25.90
2023-12-31T06:25:21.241Z,22.90
2023-12-31T06:27:48.744Z,21.00
2023-12-31T06:30:16.500Z,21.40
2023-12-31T06:32:44.068Z,21.50
2023-12-31T06:35:11.625Z,22.20
2023-12-31T06:37:39.482Z,20.90
2023-12-31T06:40:09.481Z,21.70
2023-12-31T06:42:36.810Z,22.50
2023-12-31T06:45:06.213Z,20.60
2023-12-31T06:47:33.600Z,21.00
2023-12-31T06:50:01.171Z,22.30
2023-12-31T06:52:28.505Z,20.70
2023-12-31T06:54:56.409Z,24.60
2023-12-31T06:57:23.755Z,28.90
2023-12-31T06:59:51.426Z,29.00
2023-12-31T07:02:19.000Z,32.90
2023-12-31T07:04:46.506Z,29.70
2023-12-31T07:07:14.081Z,25.90
2023-12-31T07:09:41.648Z,30.00
2023-12-31T07:12:09.109Z,36.10
2023-12-31T07:14:36.678Z,24.80
2023-12-31T07:17:04.448Z,27.60
2023-12-31T07:19:31.800Z,27.00
2023-12-31T07:21:59.145Z,24.80
2023-12-31T07:24:26.528Z,25.70
2023-12-31T07:26:54.954Z,26.50
2023-12-31T07:29:22.301Z,95.60
2023-12-31T07:31:49.925Z,70.90
2023-12-31T07:34:17.408Z,63.50
2023-12-31T07:36:45.221Z,43.80
2023-12-31T07:39:12.587Z,30.20
2023-12-31T07:41:40.079Z,29.50
2023-12-31T07:44:07.392Z,28.30
2023-12-31T07:46:34.731Z,25.10
2023-12-31T07:49:02.181Z,22.80
2023-12-31T07:51:29.742Z,34.30
2023-12-31T07:53:57.083Z,30.50
2023-12-31T07:56:24.418Z,33.80
2023-12-31T07:58:51.733Z,30.60
2023-12-31T08:01:19.269Z,45.70
2023-12-31T08:03:46.767Z,63.10
2023-12-31T08:06:14.279Z,68.00
2023-12-31T08:08:41.976Z,68.40
2023-12-31T08:11:10.386Z,63.40
2023-12-31T08:13:37.777Z,58.80
2023-12-31T08:16:06.765Z,57.50
2023-12-31T08:18:35.861Z,54.60
2023-12-31T08:21:03.519Z,67.50
2023-12-31T08:23:31.046Z,72.20
2023-12-31T08:25:58.604Z,68.20
2023-12-31T08:28:26.007Z,60.30
2023-12-31T08:30:53.909Z,58.20
2023-12-31T08:33:21.367Z,54.10
2023-12-31T08:35:49.690Z,58.60
2023-12-31T08:38:17.055Z,61.40
2023-12-31T08:40:44.834Z,77.30
2023-12-31T08:43:12.285Z,68.10
2023-12-31T08:45:40.988Z,64.80
2023-12-31T08:48:09.026Z,65.20
2023-12-31T08:50:36.554Z,59.40
2023-12-31T08:53:04.305Z,57.50
2023-12-31T08:55:31.994Z,57.80
2023-12-31T08:57:59.784Z,51.20
2023-12-31T09:00:27.291Z,45.50
2023-12-31T09:02:55.787Z,63.80
2023-12-31T09:05:24.099Z,54.60
2023-12-31T09:07:51.635Z,49.30
2023-12-31T09:10:19.218Z,52.30
2023-12-31T09:12:46.688Z,47.60
2023-12-31T09:15:14.090Z,52.40
2023-12-31T09:17:41.465Z,55.70
2023-12-31T09:20:10.042Z,49.20
2023-12-31T09:22:37.859Z,47.60
2023-12-31T09:25:07.792Z,40.80
2023-12-31T09:27:36.042Z,36.70
2023-12-31T09:30:03.622Z,39.20
2023-12-31T09:32:31.145Z,37.40
2023-12-31T09:34:58.608Z,41.30
2023-12-31T09:37:26.149Z,37.00
2023-12-31T09:39:53.600Z,28.90
2023-12-31T09:42:46.115Z,25.70
2023-12-31T09:45:14.080Z,29.00
2023-12-31T09:47:42.675Z,23.80
2023-12-31T09:50:11.009Z,20.90
2023-12-31T09:52:38.586Z,22.90
2023-12-31T09:55:06.953Z,20.40
2023-12-31T09:57:37.379Z,15.80
2023-12-31T10:00:06.167Z,13.00
2023-12-31T10:02:37.780Z,12.80
2023-12-31T10:06:15.485Z,15.70
2023-12-31T10:08:43.134Z,14.20
2023-12-31T10:11:10.523Z,12.60
2023-12-31T10:13:37.864Z,13.40
2023-12-31T10:16:13.686Z,11.40
2023-12-31T10:18:41.637Z,14.50
2023-12-31T10:21:10.933Z,11.20
2023-12-31T10:23:38.375Z,14.30
2023-12-31T10:26:05.779Z,12.90
2023-12-31T10:28:33.159Z,11.20
2023-12-31T10:31:00.586Z,12.90
2023-12-31T10:33:28.999Z,12.40
2023-12-31T10:36:06.656Z,13.20
2023-12-31T10:38:47.484Z,14.70
2023-12-31T10:41:26.015Z,17.00
2023-12-31T10:43:54.605Z,12.40
2023-12-31T10:46:22.016Z,14.40
2023-12-31T10:49:01.559Z,14.30
2023-12-31T10:51:29.120Z,21.30
2023-12-31T10:53:59.107Z,12.40
2023-12-31T10:56:29.368Z,13.40
2023-12-31T10:58:56.668Z,17.80
2023-12-31T11:01:24.018Z,12.60
2023-12-31T11:03:53.305Z,18.60
2023-12-31T11:06:20.698Z,10.10
2023-12-31T11:08:48.058Z,15.40
2023-12-31T11:11:15.754Z,13.50
2023-12-31T11:13:54.015Z,19.20
2023-12-31T11:16:42.879Z,11.40
2023-12-31T11:19:16.289Z,9.00
2023-12-31T11:21:55.401Z,10.40
2023-12-31T11:24:25.335Z,9.40
2023-12-31T11:27:08.836Z,11.50
2023-12-31T11:29:36.638Z,10.80
2023-12-31T11:32:05.980Z,9.60
2023-12-31T11:34:38.937Z,12.30
2023-12-31T11:37:08.186Z,7.70
2023-12-31T11:39:35.523Z,8.70
2023-12-31T11:42:13.431Z,9.90
2023-12-31T11:44:45.669Z,14.60
2023-12-31T11:47:22.818Z,17.00
2023-12-31T11:49:54.315Z,9.70
2023-12-31T11:52:22.628Z,12.60
2023-12-31T11:54:52.232Z,8.50
2023-12-31T11:57:20.281Z,9.40
2023-12-31T11:59:47.633Z,10.10
2023-12-31T12:02:16.095Z,10.80
2023-12-31T12:04:43.647Z,10.00
2023-12-31T12:07:11.043Z,10.50
2023-12-31T12:09:38.489Z,9.30
2023-12-31T12:12:07.221Z,11.50
2023-12-31T12:14:35.253Z,8.90
2023-12-31T12:17:05.426Z,9.20
2023-12-31T12:19:34.052Z,7.70
2023-12-31T12:22:02.705Z,8.20
2023-12-31T12:24:30.070Z,12.60
2023-12-31T12:26:59.515Z,10.30
2023-12-31T12:29:28.379Z,8.70
2023-12-31T12:31:55.924Z,9.10
2023-12-31T12:34:23.497Z,9.00
2023-12-31T12:36:51.235Z,9.10
2023-12-31T12:39:21.510Z,9.40
2023-12-31T12:41:50.093Z,10.50
2023-12-31T12:44:18.258Z,7.90
2023-12-31T12:46:47.519Z,8.20
2023-12-31T12:49:15.067Z,8.40
2023-12-31T12:51:43.608Z,7.20
2023-12-31T12:54:11.112Z,8.40
2023-12-31T12:56:38.475Z,8.20
2023-12-31T12:59:05.840Z,11.60
2023-12-31T13:01:33.388Z,8.30
2023-12-31T13:04:00.882Z,6.00
2023-12-31T13:06:28.205Z,6.40
2023-12-31T13:08:55.750Z,7.90
2023-12-31T13:11:23.149Z,9.00
2023-12-31T13:13:50.488Z,7.80
2023-12-31T13:16:22.887Z,6.50
2023-12-31T13:18:52.363Z,5.50
2023-12-31T13:21:19.994Z,7.20
2023-12-31T13:23:47.501Z,8.40
2023-12-31T13:26:14.927Z,14.00
2023-12-31T13:28:42.449Z,6.80
2023-12-31T13:31:09.956Z,9.40
2023-12-31T13:33:37.697Z,11.50
2023-12-31T13:36:05.801Z,8.00
2023-12-31T13:38:33.132Z,7.80
2023-12-31T13:41:00.535Z,7.00
2023-12-31T13:43:28.140Z,8.80
2023-12-31T13:45:56.164Z,11.20
2023-12-31T13:48:23.626Z,9.00
2023-12-31T13:50:51.162Z,15.20
2023-12-31T13:53:19.318Z,9.50
2023-12-31T13:55:46.773Z,11.40
2023-12-31T13:58:14.134Z,10.80
2023-12-31T14:00:52.004Z,12.30
2023-12-31T14:03:20.262Z,11.10
2023-12-31T14:05:47.951Z,11.30
2023-12-31T14:08:16.132Z,12.80
2023-12-31T14:10:43.617Z,14.50
2023-12-31T14:13:11.175Z,11.60
2023-12-31T14:15:38.535Z,10.70
2023-12-31T14:18:06.146Z,11.50
2023-12-31T14:20:33.612Z,9.40
2023-12-31T14:23:01.162Z,9.50
2023-12-31T14:25:28.667Z,10.30
2023-12-31T14:27:56.027Z,11.70
2023-12-31T14:30:23.526Z,10.90
2023-12-31T14:32:51.047Z,11.40
2023-12-31T14:35:18.634Z,15.30
2023-12-31T14:37:46.005Z,12.20
2023-12-31T14:40:13.437Z,14.80
2023-12-31T14:42:40.792Z,14.60
2023-12-31T14:48:06.609Z,14.50
2023-12-31T14:50:36.122Z,14.60
2023-12-31T14:53:04.120Z,38.90
2023-12-31T14:55:31.880Z,19.30
2023-12-31T14:57:59.713Z,24.30
2023-12-31T15:00:27.153Z,24.50
2023-12-31T15:02:54.523Z,22.60
2023-12-31T15:05:22.453Z,20.80
2023-12-31T15:07:50.066Z,51.50
2023-12-31T15:10:18.961Z,57.10
2023-12-31T15:12:46.396Z,107.90
2023-12-31T15:15:13.798Z,59.30
2023-12-31T15:17:41.207Z,35.90
2023-12-31T15:20:12.278Z,39.00
2023-12-31T15:22:39.684Z,37.00
2023-12-31T15:25:07.579Z,38.00
2023-12-31T15:27:35.019Z,27.20
2023-12-31T15:30:08.352Z,22.50
2023-12-31T15:32:36.144Z,24.30
2023-12-31T15:35:04.676Z,19.70
2023-12-31T15:37:32.356Z,20.20
2023-12-31T15:39:59.711Z,20.30
2023-12-31T15:42:27.717Z,22.00
2023-12-31T15:44:55.992Z,19.30
2023-12-31T15:47:27.364Z,21.30
2023-12-31T15:49:54.970Z,25.20
2023-12-31T15:52:22.795Z,30.50
2023-12-31T15:54:50.349Z,25.20
2023-12-31T15:57:17.690Z,27.80
2023-12-31T15:59:45.364Z,24.50
2023-12-31T16:02:14.884Z,23.40
2023-12-31T16:04:42.225Z,29.80
2023-12-31T16:07:09.650Z,31.80
2023-12-31T16:09:37.042Z,24.90
2023-12-31T16:12:05.311Z,20.10
2023-12-31T16:14:32.677Z,17.60
2023-12-31T16:17:00.121Z,24.40
2023-12-31T16:19:27.777Z,22.80
2023-12-31T16:21:55.221Z,18.80
2023-12-31T16:24:22.667Z,25.60
2023-12-31T16:26:50.030Z,29.80
2023-12-31T16:29:17.369Z,30.10
2023-12-31T16:31:44.769Z,37.30
2023-12-31T16:34:12.344Z,46.40
2023-12-31T16:36:40.287Z,57.50
2023-12-31T16:39:07.941Z,60.50
2023-12-31T16:41:35.512Z,54.70
2023-12-31T16:44:02.917Z,46.10
2023-12-31T16:46:30.313Z,33.60
2023-12-31T16:48:57.727Z,34.10
2023-12-31T16:51:26.651Z,23.00
2023-12-31T16:53:56.306Z,29.80
2023-12-31T16:56:23.714Z,35.60
2023-12-31T16:58:51.243Z,30.70
2023-12-31T17:01:19.588Z,31.50
2023-12-31T17:03:50.370Z,31.80
2023-12-31T17:06:18.397Z,32.10
2023-12-31T17:08:46.904Z,31.40
2023-12-31T17:11:14.277Z,33.60
2023-12-31T17:13:41.973Z,27.90
2023-12-31T17:16:10.767Z,26.00
2023-12-31T17:18:38.218Z,26.20
2023-12-31T17:21:05.738Z,22.20
2023-12-31T17:23:33.530Z,28.30
2023-12-31T17:26:01.044Z,25.10
2023-12-31T17:28:28.449Z,29.60
2023-12-31T17:30:56.897Z,24.20
2023-12-31T17:33:24.705Z,23.70
2023-12-31T17:35:52.865Z,22.20
2023-12-31T17:38:20.413Z,21.40
2023-12-31T17:40:50.517Z,21.00
2023-12-31T17:43:18.808Z,28.60
2023-12-31T17:45:46.205Z,24.60
2023-12-31T17:48:13.603Z,27.90
2023-12-31T17:50:41.073Z,27.40
2023-12-31T17:53:08.461Z,27.40
2023-12-31T17:55:35.892Z,45.40
2023-12-31T17:58:03.959Z,43.40
2023-12-31T18:00:31.672Z,33.30
2023-12-31T18:02:59.866Z,30.00
2023-12-31T18:05:27.381Z,30.70
2023-12-31T18:07:54.912Z,37.20
2023-12-31T18:10:23.184Z,36.60
2023-12-31T18:12:52.128Z,36.60
2023-12-31T18:15:19.680Z,32.00
2023-12-31T18:17:47.096Z,36.00
2023-12-31T18:20:14.724Z,42.00
2023-12-31T18:22:43.520Z,43.00
2023-12-31T18:25:10.920Z,40.00
2023-12-31T18:27:38.574Z,40.40
2023-12-31T18:30:12.112Z,41.90
2023-12-31T18:32:47.709Z,47.10
2023-12-31T18:35:15.155Z,45.50
2023-12-31T18:37:42.538Z,47.50
2023-12-31T18:40:10.606Z,45.60
2023-12-31T18:42:37.912Z,48.60
2023-12-31T18:45:06.047Z,50.20
2023-12-31T18:47:33.431Z,48.50
2023-12-31T18:50:00.884Z,57.00
2023-12-31T18:52:28.339Z,57.60
2023-12-31T18:54:55.800Z,73.60
2023-12-31T18:57:23.423Z,103.00
2023-12-31T18:59:50.760Z,99.20
2023-12-31T19:02:19.752Z,83.30
2023-12-31T19:04:47.321Z,83.60
2023-12-31T19:07:14.760Z,95.10
2023-12-31T19:09:42.137Z,85.30
2023-12-31T19:12:10.001Z,89.10
2023-12-31T19:14:38.803Z,94.50
2023-12-31T19:17:06.295Z,110.80
2023-12-31T19:19:35.445Z,98.10
2023-12-31T19:22:03.032Z,87.20
2023-12-31T19:24:30.388Z,90.80
2023-12-31T19:26:58.141Z,86.90
2023-12-31T19:29:25.607Z,92.80
2023-12-31T19:31:53.320Z,95.10
2023-12-31T19:34:21.112Z,105.10
2023-12-31T19:36:48.650Z,93.90
2023-12-31T19:39:15.986Z,106.40
2023-12-31T19:41:43.381Z,115.80
2023-12-31T19:44:27.983Z,109.90
2023-12-31T19:46:58.212Z,113.30
2023-12-31T19:49:25.647Z,112.60
2023-12-31T19:51:53.611Z,90.60
2023-12-31T19:54:21.045Z,96.40
2023-12-31T19:56:48.462Z,116.20
2023-12-31T19:59:17.693Z,103.40
2023-12-31T20:01:45.376Z,104.50
2023-12-31T20:04:12.806Z,102.70
2023-12-31T20:06:40.986Z,95.40
2023-12-31T20:09:09.061Z,102.50
2023-12-31T20:11:36.546Z,106.40
2023-12-31T20:14:04.451Z,106.50
2023-12-31T20:16:32.631Z,98.00
2023-12-31T20:19:00.215Z,97.50
2023-12-31T20:21:27.735Z,92.90
2023-12-31T20:23:57.204Z,90.90
2023-12-31T20:26:24.548Z,75.30
2023-12-31T20:28:51.883Z,87.60
2023-12-31T20:31:19.472Z,92.50
2023-12-31T20:33:46.972Z,74.50
2023-12-31T20:36:14.395Z,66.20
2023-12-31T20:38:42.104Z,68.20
2023-12-31T20:41:13.436Z,76.10
2023-12-31T20:43:45.907Z,55.20
2023-12-31T20:46:13.488Z,57.10
2023-12-31T20:48:43.107Z,61.40
2023-12-31T20:51:10.591Z,66.00
2023-12-31T20:53:38.144Z,71.50
2023-12-31T20:56:09.229Z,75.70
2023-12-31T20:58:37.353Z,71.90
2023-12-31T21:01:05.475Z,67.70
2023-12-31T21:03:32.933Z,75.20
2023-12-31T21:06:01.792Z,68.40
2023-12-31T21:08:29.392Z,71.50
2023-12-31T21:10:58.096Z,65.80
